Time;durP1;ratioP1;P1;durP2;ratioP2;P2;SDS_P1;SDS_P2;PMS_P1;PMS_P2;Temp;Humidity;BMP_temperature;BMP_pressure;BME280_temperature;BME280_humidity;BME280_pressure;Samples;Min_cycle;Max_cycle;Signal;HPM_P1;HPM_P2
2020/12/31 00:01:36;;;;;;;18.17;9.10;;;1.60;99.90;;;;;;4994729;28;20197;-69
2020/12/31 00:04:02;;;;;;;16.33;9.00;;;1.60;99.90;;;;;;4994856;28;20227;-71
2020/12/31 00:06:29;;;;;;;21.00;9.30;;;1.70;99.90;;;;;;5010413;28;20225;-70
2020/12/31 00:08:56;;;;;;;18.83;9.33;;;1.70;99.90;;;;;;5014293;28;20678;-70
2020/12/31 00:11:22;;;;;;;19.43;9.40;;;1.70;99.90;;;;;;5014651;28;20239;-70
2020/12/31 00:13:48;;;;;;;18.77;8.97;;;1.70;99.90;;;;;;5014637;28;20229;-69
2020/12/31 00:16:15;;;;;;;17.97;8.93;;;1.70;99.90;;;;;;5008635;28;20689;-70
2020/12/31 00:18:42;;;;;;;19.40;9.27;;;1.80;99.90;;;;;;4994642;28;20242;-70
2020/12/31 00:21:08;;;;;;;16.50;8.77;;;1.80;99.90;;;;;;5011892;28;20197;-70
2020/12/31 00:23:35;;;;;;;20.50;9.20;;;1.80;99.90;;;;;;5014142;28;20201;-70
2020/12/31 00:26:02;;;;;;;16.73;9.13;;;1.80;99.90;;;;;;5000559;28;20194;-69
2020/12/31 00:28:28;;;;;;;19.97;9.50;;;1.80;99.90;;;;;;5000085;28;20252;-70
2020/12/31 00:30:54;;;;;;;20.63;8.97;;;1.90;99.90;;;;;;4994252;28;20293;-68
2020/12/31 00:33:21;;;;;;;20.00;9.33;;;1.90;99.90;;;;;;4994169;28;20260;-69
2020/12/31 00:35:52;;;;;;;21.80;10.30;;;1.90;99.90;;;;;;4993811;28;20221;-70
2020/12/31 00:38:18;;;;;;;22.53;9.77;;;1.90;99.90;;;;;;4994140;28;20197;-70
2020/12/31 00:40:45;;;;;;;20.03;9.23;;;1.90;99.90;;;;;;4993880;28;20297;-71
2020/12/31 00:43:12;;;;;;;17.10;9.03;;;1.90;99.90;;;;;;4993031;28;20197;-70
2020/12/31 00:45:38;;;;;;;15.90;8.90;;;1.90;99.90;;;;;;4994087;28;20225;-69
2020/12/31 00:48:05;;;;;;;17.13;8.33;;;1.90;99.90;;;;;;4993839;28;20281;-69
2020/12/31 00:50:31;;;;;;;12.90;7.70;;;1.90;99.90;;;;;;4993678;28;20217;-69
2020/12/31 00:52:58;;;;;;;17.30;8.20;;;2.00;99.90;;;;;;4993597;28;20306;-70
2020/12/31 00:55:24;;;;;;;17.63;8.53;;;1.90;99.90;;;;;;5005068;28;20298;-69
2020/12/31 00:57:52;;;;;;;17.97;8.67;;;2.00;99.90;;;;;;5013057;28;20234;-69
2020/12/31 01:00:18;;;;;;;17.50;8.07;;;2.00;99.90;;;;;;5013084;28;20678;-71
2020/12/31 01:02:44;;;;;;;13.03;8.30;;;2.00;99.90;;;;;;5013641;28;20236;-69
2020/12/31 01:05:12;;;;;;;14.87;7.93;;;2.00;99.90;;;;;;5013008;28;20267;-69
2020/12/31 01:07:38;;;;;;;12.77;7.47;;;2.10;99.90;;;;;;4974040;28;20222;-70
2020/12/31 01:10:06;;;;;;;13.17;7.60;;;2.10;99.90;;;;;;4974157;28;20325;-70
2020/12/31 01:12:32;;;;;;;14.60;8.20;;;2.10;99.90;;;;;;4974355;28;20206;-70
2020/12/31 01:15:00;;;;;;;19.43;7.93;;;2.10;99.90;;;;;;4990615;28;20682;-69
2020/12/31 01:17:27;;;;;;;13.73;8.23;;;2.10;99.90;;;;;;5012849;28;20247;-71
2020/12/31 01:19:53;;;;;;;14.03;8.20;;;2.10;99.90;;;;;;5012941;28;20221;-69
2020/12/31 01:22:20;;;;;;;14.17;7.77;;;2.10;99.90;;;;;;4998813;28;20606;-70
2020/12/31 01:24:47;;;;;;;15.87;7.50;;;2.10;99.90;;;;;;4993030;28;20378;-70
2020/12/31 01:27:14;;;;;;;13.07;7.33;;;2.10;99.90;;;;;;4993434;28;20217;-70
2020/12/31 01:29:41;;;;;;;11.83;7.27;;;2.10;99.90;;;;;;4993595;28;20201;-70
2020/12/31 01:32:08;;;;;;;10.77;6.90;;;2.10;99.90;;;;;;4993359;28;20215;-70
2020/12/31 01:34:35;;;;;;;13.43;7.17;;;2.10;99.90;;;;;;4993371;28;20231;-70
2020/12/31 01:37:02;;;;;;;15.47;7.20;;;2.10;99.90;;;;;;4993292;28;20237;-70
2020/12/31 01:39:28;;;;;;;14.33;7.60;;;2.10;99.90;;;;;;4992969;28;20261;-71
2020/12/31 01:41:55;;;;;;;12.20;6.90;;;2.20;99.90;;;;;;4992913;28;20221;-69
2020/12/31 01:44:21;;;;;;;12.47;7.43;;;2.20;99.90;;;;;;4993259;28;20269;-69
2020/12/31 01:46:49;;;;;;;12.93;7.43;;;2.20;99.90;;;;;;4992696;28;20714;-71
2020/12/31 01:49:20;;;;;;;11.43;6.43;;;2.20;99.90;;;;;;4993021;28;20233;-71
2020/12/31 01:51:48;;;;;;;10.20;6.60;;;2.20;99.90;;;;;;4992810;28;20221;-71
2020/12/31 01:54:16;;;;;;;16.10;7.17;;;2.30;99.90;;;;;;4992161;28;20354;-70
2020/12/31 01:56:43;;;;;;;15.23;7.63;;;2.30;99.90;;;;;;4992792;28;20615;-69
2020/12/31 01:59:13;;;;;;;12.23;6.63;;;2.30;99.90;;;;;;5004315;28;20237;-72
2020/12/31 02:01:39;;;;;;;12.30;6.23;;;2.30;99.90;;;;;;5012134;28;20232;-70
2020/12/31 02:04:06;;;;;;;14.20;7.20;;;2.40;99.90;;;;;;5012393;28;20228;-70
2020/12/31 02:06:34;;;;;;;14.57;7.37;;;2.40;99.90;;;;;;5012075;28;20236;-70
2020/12/31 02:09:01;;;;;;;13.83;7.13;;;2.50;99.90;;;;;;5012200;28;20216;-70
2020/12/31 02:11:28;;;;;;;12.40;6.50;;;2.50;99.90;;;;;;4998330;28;20198;-70
2020/12/31 02:13:55;;;;;;;8.73;6.00;;;2.50;99.90;;;;;;5006868;28;20306;-70
2020/12/31 02:16:23;;;;;;;8.67;6.60;;;2.40;99.90;;;;;;5011726;28;20205;-71
2020/12/31 02:18:55;;;;;;;9.57;6.30;;;2.40;99.90;;;;;;5011711;28;20247;-71
2020/12/31 02:21:24;;;;;;;10.93;6.10;;;2.40;99.90;;;;;;5011911;28;20667;-70
2020/12/31 02:23:51;;;;;;;14.63;6.43;;;2.40;99.90;;;;;;5007216;28;20228;-71
2020/12/31 02:26:19;;;;;;;11.57;5.90;;;2.40;99.90;;;;;;4992555;28;20568;-70
2020/12/31 02:28:45;;;;;;;8.30;5.07;;;2.40;99.90;;;;;;4993630;28;20220;-71
2020/12/31 02:31:11;;;;;;;11.03;5.50;;;2.40;99.90;;;;;;4992480;28;20228;-70
2020/12/31 02:33:38;;;;;;;9.03;5.80;;;2.50;99.90;;;;;;4992129;28;20232;-69
2020/12/31 02:36:04;;;;;;;13.10;5.83;;;2.50;99.90;;;;;;4992426;28;20229;-69
2020/12/31 02:38:31;;;;;;;10.77;5.47;;;2.50;99.90;;;;;;4992028;28;20210;-71
2020/12/31 02:40:58;;;;;;;11.40;5.37;;;2.50;99.90;;;;;;4992191;28;20221;-69
2020/12/31 02:43:24;;;;;;;8.00;4.97;;;2.50;99.90;;;;;;4992325;28;20236;-71
2020/12/31 02:45:51;;;;;;;7.07;4.63;;;2.50;99.90;;;;;;4996219;28;20235;-70
2020/12/31 02:48:17;;;;;;;6.97;4.60;;;2.50;99.90;;;;;;4996030;28;20186;-70
2020/12/31 02:50:43;;;;;;;9.40;4.67;;;2.50;99.90;;;;;;4996183;28;20284;-70
2020/12/31 02:53:10;;;;;;;11.87;4.70;;;2.50;99.90;;;;;;4995781;28;20233;-70
2020/12/31 02:55:37;;;;;;;7.77;4.77;;;2.50;99.90;;;;;;4995933;28;20301;-71
2020/12/31 02:58:04;;;;;;;8.97;4.77;;;2.50;99.90;;;;;;4995744;28;20228;-71
2020/12/31 03:00:30;;;;;;;5.10;3.80;;;2.50;99.90;;;;;;4995691;28;20674;-71
2020/12/31 03:02:57;;;;;;;5.77;4.33;;;2.50;99.90;;;;;;4996035;28;20233;-70
2020/12/31 03:05:23;;;;;;;7.73;4.40;;;2.40;99.90;;;;;;4995689;28;20243;-71
2020/12/31 03:07:49;;;;;;;7.03;4.30;;;2.50;99.90;;;;;;4995395;28;20213;-70
2020/12/31 03:10:16;;;;;;;6.93;4.80;;;2.50;99.90;;;;;;4995856;28;20244;-70
2020/12/31 03:12:42;;;;;;;9.97;5.07;;;2.50;99.90;;;;;;4995734;28;20201;-70
2020/12/31 03:15:11;;;;;;;8.00;5.20;;;2.60;99.90;;;;;;4995630;28;20228;-70
2020/12/31 03:17:38;;;;;;;7.17;5.20;;;2.60;99.90;;;;;;4995710;28;20565;-70
2020/12/31 03:20:05;;;;;;;9.03;4.97;;;2.60;99.90;;;;;;4995323;28;20303;-70
2020/12/31 03:22:32;;;;;;;9.50;5.07;;;2.50;99.90;;;;;;4995219;28;20267;-70
2020/12/31 03:24:58;;;;;;;6.17;4.37;;;2.60;99.90;;;;;;4995339;28;20654;-71
2020/12/31 03:27:24;;;;;;;6.90;4.67;;;2.50;99.90;;;;;;5002768;28;20216;-71
2020/12/31 03:29:51;;;;;;;9.70;4.67;;;2.60;99.90;;;;;;5015061;28;20247;-71
2020/12/31 03:32:18;;;;;;;8.40;4.87;;;2.60;99.90;;;;;;5011981;28;20220;-70
2020/12/31 03:34:45;;;;;;;8.17;4.43;;;2.60;99.90;;;;;;4995422;28;20352;-72
2020/12/31 03:37:11;;;;;;;7.50;4.27;;;2.60;99.90;;;;;;4994953;28;20233;-71
2020/12/31 03:39:38;;;;;;;7.67;4.40;;;2.70;99.90;;;;;;4994730;28;20257;-72
2020/12/31 03:42:04;;;;;;;7.30;4.67;;;2.70;99.90;;;;;;4994824;28;20240;-71
2020/12/31 03:44:31;;;;;;;7.70;4.67;;;2.70;99.90;;;;;;4995202;28;20293;-70
2020/12/31 03:46:58;;;;;;;7.20;4.20;;;2.70;99.90;;;;;;4988279;28;20232;-70
2020/12/31 03:49:25;;;;;;;8.33;4.43;;;2.80;99.90;;;;;;4975523;28;20226;-70
2020/12/31 03:51:52;;;;;;;6.40;4.57;;;2.80;99.90;;;;;;4975337;28;20240;-70
2020/12/31 03:54:18;;;;;;;8.20;5.23;;;2.90;99.90;;;;;;4975089;28;20281;-70
2020/12/31 03:56:45;;;;;;;11.60;5.27;;;2.90;99.90;;;;;;4975208;28;20556;-69
2020/12/31 03:59:11;;;;;;;5.97;4.70;;;2.90;99.90;;;;;;4993636;28;20347;-70
2020/12/31 04:01:37;;;;;;;7.73;4.77;;;2.90;99.90;;;;;;4994884;28;20233;-70
2020/12/31 04:04:04;;;;;;;7.70;4.50;;;2.90;99.90;;;;;;4994477;28;20648;-70
2020/12/31 04:06:31;;;;;;;7.80;4.13;;;3.00;99.90;;;;;;4999040;28;20228;-71
2020/12/31 04:08:58;;;;;;;8.50;4.10;;;3.00;99.90;;;;;;5006905;28;20292;-70
2020/12/31 04:11:24;;;;;;;6.60;3.77;;;3.00;99.90;;;;;;4994506;28;20228;-70
2020/12/31 04:13:50;;;;;;;6.40;3.40;;;3.00;99.90;;;;;;4994007;28;20260;-71
2020/12/31 04:16:17;;;;;;;6.00;3.27;;;2.90;99.90;;;;;;4999053;28;20227;-71
2020/12/31 04:18:44;;;;;;;6.63;3.17;;;2.90;99.90;;;;;;5013655;28;20625;-70
2020/12/31 04:21:10;;;;;;;8.13;3.03;;;3.00;99.90;;;;;;5014134;28;20361;-70
2020/12/31 04:23:39;;;;;;;6.10;2.90;;;3.00;99.90;;;;;;5014007;28;20197;-71
2020/12/31 04:26:05;;;;;;;7.07;3.50;;;3.00;99.90;;;;;;5007863;28;20194;-70
2020/12/31 04:28:32;;;;;;;3.73;2.87;;;3.00;99.90;;;;;;4993974;28;20218;-70
2020/12/31 04:30:58;;;;;;;6.20;3.37;;;3.00;99.90;;;;;;4994173;28;20216;-70
2020/12/31 04:33:24;;;;;;;5.53;2.90;;;3.00;99.90;;;;;;4993936;28;20229;-70
2020/12/31 04:35:51;;;;;;;3.27;2.50;;;3.00;99.90;;;;;;4993946;28;20626;-70
2020/12/31 04:38:17;;;;;;;4.60;2.70;;;3.00;99.90;;;;;;4994545;28;20621;-69
2020/12/31 04:40:45;;;;;;;4.63;2.70;;;3.00;99.90;;;;;;4998422;28;20252;-69
2020/12/31 04:43:12;;;;;;;5.30;2.70;;;2.90;99.90;;;;;;5013667;28;20280;-71
2020/12/31 04:45:42;;;;;;;4.43;3.23;;;2.90;99.90;;;;;;5013761;28;20259;-71
2020/12/31 04:48:09;;;;;;;4.23;2.83;;;2.90;99.90;;;;;;5013917;28;20630;-69
2020/12/31 04:50:40;;;;;;;5.17;2.83;;;2.90;99.90;;;;;;5000538;28;20679;-70
2020/12/31 04:53:08;;;;;;;4.27;2.60;;;2.90;99.90;;;;;;4999722;28;20239;-70
2020/12/31 04:55:42;;;;;;;5.67;2.70;;;2.90;99.90;;;;;;5007250;28;20703;-70
2020/12/31 04:58:11;;;;;;;4.67;2.63;;;2.90;99.90;;;;;;4993644;28;20212;-72
2020/12/31 05:00:39;;;;;;;6.67;2.50;;;2.80;99.90;;;;;;4992957;28;20253;-70
2020/12/31 05:03:06;;;;;;;5.13;2.50;;;2.80;99.90;;;;;;4993602;28;20202;-70
2020/12/31 05:05:32;;;;;;;6.63;2.57;;;2.80;99.90;;;;;;4993197;28;20651;-70
2020/12/31 05:07:59;;;;;;;4.33;2.53;;;2.80;99.90;;;;;;4992551;28;20242;-70
2020/12/31 05:10:26;;;;;;;4.37;2.67;;;2.70;99.90;;;;;;4999504;28;20592;-70
2020/12/31 05:12:59;;;;;;;7.80;3.07;;;2.80;99.90;;;;;;5012777;28;20235;-70
2020/12/31 05:15:37;;;;;;;4.17;2.50;;;2.80;99.90;;;;;;5012543;28;20655;-70
2020/12/31 05:18:20;;;;;;;4.87;3.43;;;2.80;99.90;;;;;;5012707;28;20214;-71
2020/12/31 05:20:48;;;;;;;7.93;3.43;;;2.80;99.90;;;;;;5012726;28;20735;-70
2020/12/31 05:23:16;;;;;;;6.43;3.10;;;2.80;99.90;;;;;;5012958;28;20206;-70
2020/12/31 05:25:43;;;;;;;5.30;3.00;;;2.80;99.90;;;;;;5001743;28;20248;-70
2020/12/31 05:28:26;;;;;;;6.63;3.20;;;2.90;99.90;;;;;;4992924;28;20605;-72
2020/12/31 05:30:55;;;;;;;7.10;3.27;;;2.80;99.90;;;;;;4992858;28;20182;-70
2020/12/31 05:33:26;;;;;;;5.00;3.10;;;2.80;99.90;;;;;;4993125;28;20197;-70
2020/12/31 05:35:53;;;;;;;7.07;3.40;;;2.80;99.90;;;;;;4992933;28;20233;-70
2020/12/31 05:38:20;;;;;;;4.73;3.10;;;2.80;99.90;;;;;;4992920;28;20221;-70
2020/12/31 05:40:59;;;;;;;5.70;3.17;;;2.80;99.90;;;;;;4992533;28;20678;-70
2020/12/31 05:43:26;;;;;;;6.37;3.30;;;2.80;99.90;;;;;;4992695;28;20225;-70
2020/12/31 05:46:09;;;;;;;7.00;3.50;;;2.70;99.90;;;;;;4993233;28;20304;-70
2020/12/31 05:48:36;;;;;;;5.33;2.97;;;2.80;99.90;;;;;;4991291;28;20248;-70
2020/12/31 05:51:20;;;;;;;5.77;3.10;;;2.70;99.90;;;;;;4992467;28;20212;-70
2020/12/31 05:53:49;;;;;;;7.23;3.30;;;2.70;99.90;;;;;;4991577;28;20193;-70
2020/12/31 05:56:17;;;;;;;5.80;2.97;;;2.70;99.90;;;;;;4992514;28;20259;-70
2020/12/31 05:58:49;;;;;;;7.30;2.87;;;2.70;99.90;;;;;;4992560;28;20200;-70
2020/12/31 06:01:17;;;;;;;6.93;3.10;;;2.70;99.90;;;;;;4973263;28;20250;-69
2020/12/31 06:03:49;;;;;;;5.53;2.90;;;2.70;99.90;;;;;;4972915;28;20195;-69
2020/12/31 06:06:19;;;;;;;5.33;2.80;;;2.70;99.90;;;;;;4981036;28;20237;-70
2020/12/31 06:08:55;;;;;;;6.10;2.63;;;2.70;99.90;;;;;;4992703;28;20284;-69
2020/12/31 06:11:31;;;;;;;3.63;2.70;;;2.70;99.90;;;;;;4992780;28;20197;-70
2020/12/31 06:13:58;;;;;;;6.30;3.33;;;2.80;99.90;;;;;;4989530;28;20196;-70
2020/12/31 06:16:28;;;;;;;9.80;3.47;;;2.80;99.90;;;;;;4992934;28;20203;-70
2020/12/31 06:19:01;;;;;;;8.13;4.17;;;3.00;99.90;;;;;;5005606;28;20215;-70
2020/12/31 06:21:40;;;;;;;5.33;3.83;;;3.10;99.90;;;;;;5002511;28;20269;-70
2020/12/31 06:24:12;;;;;;;7.70;3.87;;;3.10;99.90;;;;;;5006021;28;20239;-70
2020/12/31 06:26:41;;;;;;;6.90;4.07;;;3.10;99.90;;;;;;5012125;28;20195;-70
2020/12/31 06:29:08;;;;;;;7.83;4.63;;;3.10;99.90;;;;;;5012101;28;20185;-70
2020/12/31 06:31:37;;;;;;;8.07;4.83;;;3.10;99.90;;;;;;5011686;28;20239;-70
2020/12/31 06:34:04;;;;;;;8.77;4.17;;;3.10;99.90;;;;;;5010382;28;20220;-70
2020/12/31 06:36:35;;;;;;;10.37;4.30;;;3.00;99.90;;;;;;4991956;28;20264;-70
2020/12/31 06:39:03;;;;;;;8.20;4.10;;;3.00;99.90;;;;;;4992137;28;20190;-70
2020/12/31 06:41:40;;;;;;;7.90;4.17;;;2.90;99.90;;;;;;4992182;28;20220;-69
2020/12/31 06:44:09;;;;;;;9.37;4.10;;;2.90;99.90;;;;;;4991466;28;20193;-71
2020/12/31 06:46:41;;;;;;;5.57;3.70;;;2.80;99.90;;;;;;4991985;28;20236;-70
2020/12/31 06:49:07;;;;;;;5.63;3.40;;;2.70;99.90;;;;;;4991830;28;20182;-70
2020/12/31 06:51:34;;;;;;;6.63;3.43;;;2.70;99.90;;;;;;4991910;28;20240;-71
2020/12/31 06:54:01;;;;;;;6.83;3.23;;;2.70;99.90;;;;;;4998254;28;20228;-71
2020/12/31 06:56:45;;;;;;;5.17;3.07;;;2.60;99.90;;;;;;5011840;28;20266;-71
2020/12/31 06:59:28;;;;;;;5.00;2.90;;;2.70;99.90;;;;;;5005742;28;20249;-71
2020/12/31 07:01:56;;;;;;;5.37;3.27;;;2.70;99.90;;;;;;4991949;28;20269;-71
2020/12/31 07:04:32;;;;;;;5.17;3.27;;;2.70;99.90;;;;;;5008683;28;20202;-71
2020/12/31 07:06:59;;;;;;;4.93;3.20;;;2.70;99.90;;;;;;4992371;28;20248;-71
2020/12/31 07:09:37;;;;;;;5.73;3.30;;;2.70;99.90;;;;;;4983495;28;20281;-72
2020/12/31 07:12:05;;;;;;;4.10;3.07;;;2.70;99.90;;;;;;4972697;28;20198;-71
2020/12/31 07:14:33;;;;;;;7.63;3.43;;;2.80;99.90;;;;;;4972869;28;20245;-71
2020/12/31 07:17:05;;;;;;;6.47;4.17;;;2.80;99.90;;;;;;4972409;28;20645;-71
2020/12/31 07:19:45;;;;;;;5.77;3.63;;;2.70;99.90;;;;;;4972824;28;20323;-71
2020/12/31 07:22:19;;;;;;;4.83;2.97;;;2.70;99.90;;;;;;4986735;28;20228;-71
2020/12/31 07:24:56;;;;;;;8.60;4.27;;;2.70;99.90;;;;;;5011895;28;20196;-70
2020/12/31 07:27:30;;;;;;;5.13;3.67;;;2.70;99.90;;;;;;4999681;28;20213;-71
2020/12/31 07:30:16;;;;;;;8.67;3.70;;;2.70;99.90;;;;;;4992118;28;20200;-70
2020/12/31 07:33:06;;;;;;;11.47;4.87;;;2.70;99.90;;;;;;4995175;28;20184;-69
2020/12/31 07:35:38;;;;;;;10.00;4.70;;;2.80;99.90;;;;;;4995038;28;20252;-69
2020/12/31 07:38:06;;;;;;;9.80;4.43;;;2.80;99.90;;;;;;4995260;28;20185;-71
2020/12/31 07:40:42;;;;;;;8.97;4.60;;;2.80;99.90;;;;;;4995298;28;20256;-70
2020/12/31 07:43:11;;;;;;;8.67;4.27;;;2.70;99.90;;;;;;5010706;28;20607;-70
2020/12/31 07:45:44;;;;;;;9.87;4.77;;;2.70;99.90;;;;;;5014682;28;20258;-70
2020/12/31 07:48:12;;;;;;;10.80;5.07;;;2.80;99.90;;;;;;5014721;28;20200;-71
2020/12/31 07:50:38;;;;;;;10.90;4.43;;;2.80;99.90;;;;;;5006784;28;20201;-72
2020/12/31 07:53:04;;;;;;;10.23;5.00;;;2.80;99.90;;;;;;4995083;28;20241;-69
2020/12/31 07:55:33;;;;;;;10.10;4.60;;;2.80;99.90;;;;;;4995198;28;20272;-70
2020/12/31 07:58:01;;;;;;;10.90;4.70;;;2.80;99.90;;;;;;4994768;28;20217;-70
2020/12/31 08:00:28;;;;;;;10.10;4.97;;;2.80;99.90;;;;;;4994585;28;20221;-70
2020/12/31 08:02:55;;;;;;;9.37;5.50;;;2.90;99.90;;;;;;4994492;28;20198;-69
2020/12/31 08:05:25;;;;;;;7.80;5.33;;;3.00;99.90;;;;;;4994835;28;20667;-71
2020/12/31 08:07:53;;;;;;;13.67;5.93;;;3.00;99.90;;;;;;4994909;28;20194;-70
2020/12/31 08:10:19;;;;;;;12.17;5.90;;;3.10;99.90;;;;;;4995094;28;20240;-70
2020/12/31 08:12:56;;;;;;;9.17;5.60;;;3.20;99.90;;;;;;4995317;28;20347;-70
2020/12/31 08:15:23;;;;;;;10.47;5.50;;;3.30;99.90;;;;;;4994725;28;20248;-70
2020/12/31 08:17:51;;;;;;;9.60;5.23;;;3.20;99.90;;;;;;4994820;28;20221;-70
2020/12/31 08:20:19;;;;;;;7.90;5.00;;;3.20;99.90;;;;;;5013374;28;20220;-71
2020/12/31 08:22:52;;;;;;;10.03;5.17;;;3.20;99.90;;;;;;5014656;28;20201;-69
2020/12/31 08:25:25;;;;;;;11.33;5.77;;;3.20;99.90;;;;;;5014514;28;20196;-71
2020/12/31 08:27:52;;;;;;;11.30;5.13;;;3.20;99.90;;;;;;4996301;28;20188;-70
2020/12/31 08:30:20;;;;;;;11.10;5.33;;;3.20;99.90;;;;;;4994320;28;20257;-70
2020/12/31 08:32:55;;;;;;;11.70;4.77;;;3.20;99.90;;;;;;4994130;28;20300;-70
2020/12/31 08:35:23;;;;;;;11.90;4.63;;;3.20;99.90;;;;;;4994855;28;20220;-70
2020/12/31 08:38:01;;;;;;;8.03;4.13;;;3.10;99.90;;;;;;4994018;28;20185;-69
2020/12/31 08:40:27;;;;;;;5.67;4.30;;;3.10;99.90;;;;;;4994727;28;20300;-71
2020/12/31 08:42:55;;;;;;;8.83;4.20;;;3.10;99.90;;;;;;4993241;28;20324;-72
2020/12/31 08:45:29;;;;;;;7.60;4.33;;;3.10;99.90;;;;;;4994808;28;20236;-70
2020/12/31 08:48:15;;;;;;;7.47;4.03;;;3.10;99.90;;;;;;4999803;28;20208;-70
2020/12/31 08:50:43;;;;;;;10.87;3.50;;;3.10;99.90;;;;;;4994712;28;20226;-70
2020/12/31 08:53:12;;;;;;;6.90;3.80;;;3.10;99.90;;;;;;4994232;28;20233;-70
2020/12/31 08:55:38;;;;;;;6.83;4.00;;;3.10;99.90;;;;;;4993862;28;20270;-70
2020/12/31 08:58:15;;;;;;;10.40;4.13;;;3.10;99.90;;;;;;4994530;28;20244;-72
2020/12/31 09:00:42;;;;;;;7.40;3.80;;;3.10;99.90;;;;;;4994733;28;20260;-71
2020/12/31 09:03:09;;;;;;;7.43;3.97;;;3.10;99.90;;;;;;4994621;28;20245;-71
2020/12/31 09:05:35;;;;;;;6.40;4.03;;;3.10;99.90;;;;;;4994310;28;20198;-70
2020/12/31 09:08:06;;;;;;;6.37;3.87;;;3.10;99.90;;;;;;4994317;28;20275;-72
2020/12/31 09:10:35;;;;;;;5.90;3.60;;;3.10;99.90;;;;;;5002334;28;20183;-70
2020/12/31 09:13:02;;;;;;;5.80;3.70;;;3.10;99.90;;;;;;4995899;28;20291;-70
2020/12/31 09:15:29;;;;;;;5.93;3.93;;;3.20;99.90;;;;;;4993219;28;20225;-71
2020/12/31 09:17:56;;;;;;;7.00;3.57;;;3.20;99.90;;;;;;4994172;28;20275;-71
2020/12/31 09:20:25;;;;;;;6.20;3.97;;;3.20;99.90;;;;;;4997843;28;20662;-71
2020/12/31 09:22:52;;;;;;;7.63;3.70;;;3.20;99.90;;;;;;4997984;28;20197;-70
2020/12/31 09:25:20;;;;;;;5.53;3.87;;;3.20;99.90;;;;;;4997683;28;20561;-70
2020/12/31 09:27:47;;;;;;;7.00;3.80;;;3.20;99.90;;;;;;4998357;28;20182;-70
2020/12/31 09:30:16;;;;;;;6.20;3.97;;;3.30;99.90;;;;;;4997054;28;20213;-71
2020/12/31 09:32:47;;;;;;;6.83;3.77;;;3.30;99.90;;;;;;5008029;28;20263;-70
2020/12/31 09:35:14;;;;;;;4.80;3.50;;;3.30;99.90;;;;;;5005297;28;21855;-71
2020/12/31 09:37:51;;;;;;;5.53;3.70;;;3.30;99.90;;;;;;4994067;28;20200;-70
2020/12/31 09:40:18;;;;;;;4.53;3.43;;;3.30;99.90;;;;;;4992799;28;20245;-71
2020/12/31 09:42:45;;;;;;;6.33;3.60;;;3.30;99.90;;;;;;4992697;28;20238;-71
2020/12/31 09:45:13;;;;;;;9.43;3.60;;;3.30;99.90;;;;;;5005403;28;20217;-71
2020/12/31 09:47:39;;;;;;;6.80;3.77;;;3.30;99.90;;;;;;4992574;28;20546;-71
2020/12/31 09:50:08;;;;;;;5.20;3.73;;;3.30;99.90;;;;;;4993557;28;20568;-72
2020/12/31 09:52:35;;;;;;;6.27;3.80;;;3.30;99.90;;;;;;4992177;28;20289;-70
2020/12/31 09:55:01;;;;;;;5.40;3.93;;;3.30;99.90;;;;;;4992610;28;20306;-69
2020/12/31 09:57:28;;;;;;;7.33;4.23;;;3.30;99.90;;;;;;4993136;28;20756;-72
2020/12/31 09:59:54;;;;;;;7.93;4.33;;;3.40;99.90;;;;;;4991988;28;20269;-70
2020/12/31 10:02:21;;;;;;;8.10;4.50;;;3.40;99.90;;;;;;4992639;28;20320;-70
2020/12/31 10:04:48;;;;;;;8.97;5.23;;;3.50;99.90;;;;;;4992963;28;20193;-70
2020/12/31 10:07:14;;;;;;;8.77;5.90;;;3.50;99.90;;;;;;4992852;28;20181;-70
2020/12/31 10:09:41;;;;;;;14.03;8.90;;;3.50;99.90;;;;;;4992326;28;20245;-71
2020/12/31 10:12:07;;;;;;;15.17;8.83;;;3.50;99.90;;;;;;4992486;28;20233;-71
2020/12/31 10:14:34;;;;;;;14.70;8.80;;;3.60;99.90;;;;;;4992385;28;20749;-72
2020/12/31 10:17:01;;;;;;;10.50;7.20;;;3.50;99.90;;;;;;4992512;28;20193;-72
2020/12/31 10:19:28;;;;;;;12.17;6.50;;;3.60;99.90;;;;;;4992681;28;20217;-71
2020/12/31 10:21:54;;;;;;;10.57;6.30;;;3.60;99.90;;;;;;4992758;28;20237;-72
2020/12/31 10:24:21;;;;;;;9.87;6.53;;;3.60;99.90;;;;;;4992440;28;20244;-70
2020/12/31 10:26:47;;;;;;;7.70;5.00;;;3.60;99.90;;;;;;4992311;28;20232;-70
2020/12/31 10:29:15;;;;;;;9.70;4.93;;;3.70;99.90;;;;;;4992406;28;20216;-71
2020/12/31 10:31:42;;;;;;;9.57;4.90;;;3.70;99.90;;;;;;4992368;28;20305;-70
2020/12/31 10:34:09;;;;;;;9.40;4.63;;;3.70;99.90;;;;;;4992809;28;20205;-71
2020/12/31 10:36:37;;;;;;;11.27;4.73;;;3.70;99.90;;;;;;4992393;28;20197;-72
2020/12/31 10:39:04;;;;;;;7.97;4.67;;;3.80;99.90;;;;;;4992544;28;20193;-71
2020/12/31 10:41:30;;;;;;;6.00;4.30;;;3.80;99.90;;;;;;4991961;28;20252;-70
2020/12/31 10:43:57;;;;;;;7.87;5.07;;;3.90;99.90;;;;;;4992127;28;20198;-70
2020/12/31 10:46:25;;;;;;;6.77;4.40;;;3.90;99.90;;;;;;4992831;28;20400;-72
2020/12/31 10:48:51;;;;;;;7.20;4.77;;;4.00;99.90;;;;;;4992374;28;20236;-70
2020/12/31 10:51:18;;;;;;;7.00;4.40;;;4.00;99.90;;;;;;4993254;28;20190;-70
2020/12/31 10:53:45;;;;;;;8.07;4.30;;;4.00;99.90;;;;;;5011644;28;20225;-69
2020/12/31 10:56:17;;;;;;;6.53;4.07;;;4.00;99.90;;;;;;4992088;28;20255;-70
2020/12/31 10:58:44;;;;;;;7.43;3.67;;;4.10;99.90;;;;;;4992073;28;20186;-69
2020/12/31 11:01:13;;;;;;;6.97;3.37;;;4.10;99.90;;;;;;4979253;28;20684;-70
2020/12/31 11:03:39;;;;;;;4.67;3.10;;;4.20;99.90;;;;;;4969267;28;20245;-68
2020/12/31 11:06:06;;;;;;;5.47;3.67;;;4.20;99.90;;;;;;4974170;28;20218;-70
2020/12/31 11:08:32;;;;;;;6.33;3.40;;;4.20;99.90;;;;;;4974699;28;20273;-70
2020/12/31 11:10:59;;;;;;;3.80;2.90;;;4.20;99.90;;;;;;4975671;28;20225;-71
2020/12/31 11:13:27;;;;;;;4.53;3.37;;;4.20;99.90;;;;;;4976001;28;20225;-69
2020/12/31 11:15:53;;;;;;;4.87;3.30;;;4.20;99.90;;;;;;4976016;28;20261;-70
2020/12/31 11:18:20;;;;;;;5.03;3.50;;;4.10;99.90;;;;;;4975934;28;20222;-69
2020/12/31 11:20:46;;;;;;;5.83;3.07;;;4.10;99.90;;;;;;4976209;28;20257;-70
2020/12/31 11:23:12;;;;;;;6.80;3.73;;;4.10;99.90;;;;;;4983591;28;20233;-69
2020/12/31 11:25:39;;;;;;;5.10;3.40;;;4.10;99.90;;;;;;4976279;28;20254;-66
2020/12/31 11:28:06;;;;;;;7.93;3.30;;;4.20;99.90;;;;;;4976469;28;20666;-66
2020/12/31 11:30:33;;;;;;;5.07;3.20;;;4.20;99.90;;;;;;4975920;28;20660;-64
2020/12/31 11:32:59;;;;;;;4.47;3.07;;;4.20;99.90;;;;;;4975977;28;20221;-65
2020/12/31 11:35:26;;;;;;;9.47;3.60;;;4.20;99.90;;;;;;4976913;28;20202;-63
2020/12/31 11:37:52;;;;;;;4.77;3.20;;;4.20;99.90;;;;;;4974375;28;20193;-64
2020/12/31 11:40:18;;;;;;;5.33;3.30;;;4.20;99.90;;;;;;4974439;28;20300;-66
2020/12/31 11:42:45;;;;;;;6.67;3.60;;;4.20;99.90;;;;;;4975248;28;20535;-65
2020/12/31 11:45:14;;;;;;;4.83;3.47;;;4.10;99.90;;;;;;4975663;28;20238;-68
2020/12/31 11:47:40;;;;;;;4.23;3.40;;;4.10;99.90;;;;;;4975500;28;20214;-62
2020/12/31 11:50:08;;;;;;;5.23;3.60;;;4.10;99.90;;;;;;4975039;28;20285;-66
2020/12/31 11:52:34;;;;;;;6.57;3.60;;;4.10;99.90;;;;;;4975375;28;20234;-66
2020/12/31 11:55:00;;;;;;;5.70;3.77;;;4.10;99.90;;;;;;4985201;28;20324;-66
2020/12/31 11:57:27;;;;;;;4.17;3.47;;;4.10;99.90;;;;;;4993695;28;20276;-66
2020/12/31 11:59:53;;;;;;;4.37;3.80;;;4.00;99.90;;;;;;4994458;28;20620;-67
2020/12/31 12:02:21;;;;;;;5.00;4.00;;;4.00;99.90;;;;;;4994327;28;20628;-66
2020/12/31 12:04:47;;;;;;;6.03;4.30;;;4.00;99.90;;;;;;4994698;28;20322;-65
2020/12/31 12:07:13;;;;;;;7.07;4.13;;;4.00;99.90;;;;;;4994156;28;20232;-64
2020/12/31 12:09:40;;;;;;;5.90;4.00;;;4.00;99.90;;;;;;4994686;28;20233;-64
2020/12/31 12:12:07;;;;;;;4.37;3.83;;;4.00;99.90;;;;;;4994687;28;20197;-65
2020/12/31 12:14:33;;;;;;;6.57;4.03;;;4.00;99.90;;;;;;4994713;28;20221;-65
2020/12/31 12:17:01;;;;;;;6.10;3.83;;;3.90;99.90;;;;;;4994474;28;20193;-66
2020/12/31 12:19:28;;;;;;;5.70;3.60;;;4.00;99.90;;;;;;4994227;28;20190;-66
2020/12/31 12:21:58;;;;;;;6.77;3.80;;;3.90;99.90;;;;;;4994445;28;20198;-66
2020/12/31 12:24:24;;;;;;;6.87;3.47;;;3.90;99.90;;;;;;4994412;28;20899;-66
2020/12/31 12:26:51;;;;;;;6.03;3.57;;;4.00;99.90;;;;;;4994163;28;20281;-64
2020/12/31 12:29:17;;;;;;;6.03;3.70;;;4.00;99.90;;;;;;4994284;28;20323;-62
2020/12/31 12:31:44;;;;;;;5.77;3.70;;;4.00;99.90;;;;;;4993993;28;20276;-66
2020/12/31 12:34:11;;;;;;;6.00;3.77;;;4.00;99.90;;;;;;4993939;28;20293;-64
2020/12/31 12:36:39;;;;;;;7.77;3.83;;;4.00;99.90;;;;;;4993590;28;20699;-66
2020/12/31 12:39:06;;;;;;;6.57;4.10;;;4.00;99.90;;;;;;4993838;28;20232;-65
2020/12/31 12:41:33;;;;;;;7.17;4.17;;;4.00;99.90;;;;;;4993633;28;20265;-65
2020/12/31 12:43:59;;;;;;;13.53;4.27;;;4.00;99.90;;;;;;4993592;28;20672;-64
2020/12/31 12:46:26;;;;;;;7.80;4.70;;;3.90;99.90;;;;;;4993617;28;20336;-66
2020/12/31 12:48:52;;;;;;;7.60;4.40;;;3.90;99.90;;;;;;4993681;28;20221;-62
2020/12/31 12:51:19;;;;;;;6.83;4.93;;;3.90;99.90;;;;;;4993770;28;20226;-66
2020/12/31 12:53:46;;;;;;;8.47;4.83;;;3.80;99.90;;;;;;4993563;28;20667;-66
2020/12/31 12:56:13;;;;;;;7.57;5.43;;;3.80;99.90;;;;;;4974197;28;20202;-67
2020/12/31 12:58:41;;;;;;;10.63;5.40;;;3.80;99.90;;;;;;4974833;28;20229;-65